Terminal Aerodrome Forecast
Issued by NWS

Current Version | Previous Version | Graphics & Text | Print | Product List | Glossary On
Versions: 1 2 3 4 5 6 7 8 9 10 11 12 13 14 15 16 17 18 19 20 21
000
FTUS41 KPBZ 282200 AAA
TAFMGW
TAF AMD
KMGW 282214Z 2822/2918 22012KT P6SM VCSH BKN150
     FM290200 27012G24KT 4SM -SHRA BKN035
     FM290500 26010G20KT P6SM BKN035
     FM290600 27005KT P6SM SCT080
     FM291500 25009KT P6SM BKN050=

USA.gov is the U.S. government's official web portal to all federal, state and local government web resources and services.